D/T METAR WX W/DIR W/SPE G/SPE TEMP DEWP
7/12/19 22:50 EGWU 072250Z AUTO 23016KT 9999 // OVC014/// 11/08 Q1006 SW (230°) 18.4mph 11°C 8°C
7/12/19 21:50 EGWU 072150Z AUTO 23013KT 9999 // OVC014/// 11/08 Q1008 SW (230°) 15.0mph 11°C 8°C
7/12/19 20:50 EGWU 072050Z 23011KT 9999 OVC015 10/07 Q1009 RMK WHT SW (230°) 12.7mph 10°C 7°C
7/12/19 20:20 EGWU 072020Z 23012KT 9999 OVC017 10/07 Q1009 BECMG BKN014 RMK WHT BECMG GRN SW (230°) 13.8mph 10°C 7°C
7/12/19 19:50 EGWU 071950Z 23012KT 9999 OVC017 10/07 Q1010 NOSIG RMK WHT WHT SW (230°) 13.8mph 10°C 7°C
7/12/19 19:20 EGWU 071920Z 24013KT 9999 OVC018 10/07 Q1011 NOSIG RMK WHT WHT WSW (240°) 15.0mph 10°C 7°C
7/12/19 18:20 EGWU 071820Z 24012KT 9999 BKN020 10/06 Q1012 NOSIG RMK WHT WHT WSW (240°) 13.8mph 10°C 6°C
7/12/19 17:50 EGWU 071750Z 23010KT 9999 FEW021 BKN024 10/06 Q1012 NOSIG RMK WHT WHT SW (230°) 11.5mph 10°C 6°C
7/12/19 17:20 EGWU 071720Z 23009KT 9999 BKN025 10/06 Q1012 BECMG BKN020 RMK BLU BECMG WHT SW (230°) 10.4mph 10°C 6°C
7/12/19 16:50 EGWU 071650Z 24010KT 9999 BKN025 10/06 Q1012 BECMG BKN020 RMK BLU BECMG WHT WSW (240°) 11.5mph 10°C 6°C
7/12/19 16:20 EGWU 071620Z 24009KT 9999 BKN027 10/06 Q1012 NOSIG RMK BLU BLU WSW (240°) 10.4mph 10°C 6°C
7/12/19 15:50 EGWU 071550Z 24011KT 9999 BKN027 10/06 Q1012 NOSIG RMK BLU BLU WSW (240°) 12.7mph 10°C 6°C
7/12/19 15:20 EGWU 071520Z 24010KT 9999 BKN028 11/06 Q1013 NOSIG RMK BLU BLU WSW (240°) 11.5mph 11°C 6°C
7/12/19 14:23 EGWU 071423Z 23009KT 9999 BKN027 11/06 Q1012 NOSIG RMK BLU BLU SW (230°) 10.4mph 11°C 6°C
7/12/19 13:50 EGWU 071350Z 24010KT 9999 BKN030 11/06 Q1013 NOSIG RMK BLU BLU WSW (240°) 11.5mph 11°C 6°C
7/12/19 13:20 EGWU 071320Z 24010KT 9999 BKN030 11/06 Q1013 NOSIG RMK BLU BLU WSW (240°) 11.5mph 11°C 6°C
7/12/19 12:50 EGWU 071250Z 24008KT 9999 BKN033 11/06 Q1013 NOSIG RMK BLU BLU WSW (240°) 9.2mph 11°C 6°C
7/12/19 12:21 EGWU 071221Z 25010KT 9999 BKN035 11/06 Q1014 NOSIG RMK BLU BLU WSW (250°) 11.5mph 11°C 6°C
7/12/19 11:50 EGWU 071150Z 26010KT 9999 BKN035 10/06 Q1014 NOSIG RMK BLU BLU W (260°) 11.5mph 10°C 6°C
7/12/19 11:21 EGWU 071121Z 25009KT 9999 BKN035 10/06 Q1014 NOSIG RMK BLU BLU WSW (250°) 10.4mph 10°C 6°C
7/12/19 10:26 EGWU 071026Z 24008KT 9999 BKN038 09/06 Q1014 NOSIG RMK BLU BLU WSW (240°) 9.2mph 9°C 6°C
7/12/19 09:50 EGWU 070950Z 25007KT 9999 BKN038 09/06 Q1014 NOSIG RMK BLU BLU WSW (250°) 8.1mph 9°C 6°C
7/12/19 09:20 EGWU 070920Z 25006KT 9999 BKN038 08/06 Q1014 NOSIG RMK BLU BLU WSW (250°) 6.9mph 8°C 6°C
7/12/19 08:50 EGWU 070850Z 25008KT 9999 BKN038 08/06 Q1014 NOSIG RMK BLU BLU WSW (250°) 9.2mph 8°C 6°C
7/12/19 08:20 EGWU 070820Z 25008KT 9999 BKN042 08/06 Q1014 NOSIG RMK BLU BLU WSW (250°) 9.2mph 8°C 6°C
7/12/19 07:50 EGWU 070750Z 25007KT 9999 BKN040 08/05 Q1013 NOSIG RMK BLU BLU WSW (250°) 8.1mph 8°C 5°C
7/12/19 07:20 EGWU 070720Z 24006KT 9999 BKN040 07/05 Q1013 NOSIG RMK BLU BLU WSW (240°) 6.9mph 7°C 5°C
7/12/19 06:50 EGWU 070650Z 25004KT 9999 FEW040 BKN220 07/05 Q1013 NOSIG RMK BLU BLU WSW (250°) 4.6mph 7°C 5°C
7/12/19 05:50 EGWU 070550Z AUTO 24007KT 9999 // FEW040/// BKN230/// 07/05 Q1012 WSW (240°) 8.1mph 7°C 5°C
7/12/19 04:50 EGWU 070450Z AUTO 25006KT 9999 // SCT041/// 08/05 Q1011 WSW (250°) 6.9mph 8°C 5°C
7/12/19 03:50 EGWU 070350Z AUTO 26006KT 9999 // OVC041/// 09/05 Q1011 W (260°) 6.9mph 9°C 5°C
7/12/19 02:50 EGWU 070250Z AUTO 26008KT 9999 // OVC040/// 09/06 Q1011 W (260°) 9.2mph 9°C 6°C
7/12/19 01:50 EGWU 070150Z AUTO 25008KT 9999 // BKN043/// 09/06 Q1010 WSW (250°) 9.2mph 9°C 6°C
7/12/19 00:50 EGWU 070050Z AUTO 26014KT 9999 // FEW042/// 09/06 Q1009 W (260°) 16.1mph 9°C 6°C
6/12/19 23:50 EGWU 062350Z AUTO 25013KT 9999 // BKN039/// 08/06 Q1009 WSW (250°) 15.0mph 8°C 6°C
6/12/19 22:50 EGWU 062250Z AUTO 25010KT 9999 // FEW240/// 08/06 Q1009 WSW (250°) 11.5mph 8°C 6°C
6/12/19 21:50 EGWU 062150Z AUTO 26009KT 9999 // SCT035/// 08/06 Q1008 W (260°) 10.4mph 8°C 6°C
6/12/19 20:50 EGWU 062050Z AUTO 28012KT 9999 // SCT036/// 10/06 Q1007 W (280°) 13.8mph 10°C 6°C
6/12/19 19:50 EGWU 061950Z AUTO 27011KT 9999 // BKN041/// SCT048/// 10/07 Q1006 W (270°) 12.7mph 10°C 7°C
6/12/19 18:50 EGWU 061850Z 27010KT 9999 BKN042 10/07 Q1005 NOSIG RMK BLU BLU W (270°) 11.5mph 10°C 7°C
6/12/19 18:21 EGWU 061821Z 28013KT 9999 SCT045 10/07 Q1004 NOSIG RMK BLU BLU W (280°) 15.0mph 10°C 7°C
6/12/19 17:50 EGWU 061750Z 27014KT 9999 BKN045 10/07 Q1003 NOSIG RMK BLU BLU W (270°) 16.1mph 10°C 7°C
6/12/19 16:50 EGWU 061650Z 27016KT 9999 FEW028 BKN050 11/08 Q1002 NOSIG RMK BLU BLU W (270°) 18.4mph 11°C 8°C
6/12/19 16:24 EGWU 061624Z 26016KT 9999 FEW016 BKN048 11/09 Q1002 TEMPO 5000 SHRA SCT016 RMK BLU TEMPO WHT W (260°) 18.4mph 11°C 9°C
6/12/19 15:50 EGWU 061550Z 26018KT 9999 SCT016TCU SCT045 11/09 Q1001 TEMPO 4000 SHRA RMK WHT TEMPO GRN W (260°) 20.7mph 11°C 9°C
6/12/19 15:24 EGWU 061524Z 25016KT 3000 +SHRA BKN014CB OVC048 11/10 Q1001 TEMPO 9999 NSW FEW014 BKN048 RMK YLO1 TEMPO BLU +SHRA WSW (250°) 18.4mph 11°C 10°C
6/12/19 14:50 EGWU 061450Z 25014KT 9999 FEW018 BKN050 12/09 Q1001 TEMPO 6000 SHRA BKN022CB RMK BLU TEMPO WHT WSW (250°) 16.1mph 12°C 9°C
6/12/19 14:20 EGWU 061420Z 25017KT 9999 SCT030 BKN050 12/08 Q1001 TEMPO 7000 SHRA SCT024 RMK BLU TEMPO WHT WSW (250°) 19.6mph 12°C 8°C